^^
Datos históricos de la estación: Murcia-Puente Tocinos
Diario Informe para Marzo 1, 2019 Unidades:  Métrico    Ingés   Ambas
Diario Semanal Mensual Anual
  Máxima: Mínima: Promedio:
Temperatura: 33.6 °C 22.6 °C 28 °C
Punto de rocio: 21 °C 12.6 °C 17 °C
Humedad: 78% 39% 52%
Velocidad viento: 19.8km/h 0km/h 10km/h
Racha viento: 35.4km/h - -
Viento- - Este
Presión: 1015.0 hPa 1010.9 hPa -
Precipitación: 0.0 mm    
 
 
Tabla de datos para Marzo 1, 2019
Hora Temperatura Punto de rocio Presión Viento Velocidad viento Racha viento Humedad Intensidad lluvia(por hora) Nubes
02:00 26.1 °C 16.1 °C 1015.0 hPa SSO 3.2 km/h 8 km/h 54% 0.0 mm
02:05 25.9 °C 16.2 °C 1014.9 hPa SE 2.9 km/h 3.7 km/h 55% 0.0 mm
02:10 25.9 °C 16.2 °C 1014.9 hPa SE 3.2 km/h 3.2 km/h 55% 0.0 mm
02:15 25.9 °C 16.2 °C 1014.9 hPa SE 3.2 km/h 1.6 km/h 55% 0.0 mm
02:20 25.8 °C 16.1 °C 1014.8 hPa Calm     55% 0.0 mm
02:25 25.8 °C 16.3 °C 1014.8 hPa Calm     56% 0.0 mm
02:30 25.7 °C 16.3 °C 1014.8 hPa Calm     56% 0.0 mm
02:35 25.6 °C 16.2 °C 1014.6 hPa Calm   3.7 km/h 56% 0.0 mm
02:40 25.4 °C 16 °C 1014.6 hPa SE 2.9 km/h 3.7 km/h 56% 0.0 mm
02:45 25.3 °C 16.2 °C 1014.6 hPa SE 3.2 km/h 1.6 km/h 57% 0.0 mm
02:50 25.3 °C 16.2 °C 1014.5 hPa Calm   4.8 km/h 57% 0.0 mm
02:55 25.3 °C 16.2 °C 1014.5 hPa Calm   4.8 km/h 57% 0.0 mm
03:00 25.2 °C 16.1 °C 1014.5 hPa Calm   4.8 km/h 57% 0.0 mm
03:05 25.1 °C 16 °C 1014.4 hPa Calm     57% 0.0 mm
03:10 25.1 °C 15.4 °C 1014.4 hPa Sur 1.6 km/h 8 km/h 55% 0.0 mm
03:15 25.2 °C 14.3 °C 1014.4 hPa SSO 2.3 km/h 10.3 km/h 51% 0.0 mm
03:20 25.3 °C 14.1 °C 1014.4 hPa SO 6.9 km/h 10.3 km/h 50% 0.0 mm
03:25 25.3 °C 14.1 °C 1014.4 hPa SSO 8 km/h 11.3 km/h 50% 0.0 mm
03:30 25.3 °C 14.1 °C 1014.4 hPa SSO 6.9 km/h 10 km/h 50% 0.0 mm
03:35 25.2 °C 14.1 °C 1014.2 hPa SO 6.9 km/h 9.3 km/h 50% 0.0 mm
03:40 25.2 °C 14.3 °C 1014.2 hPa OSO 5.8 km/h 7.4 km/h 51% 0.0 mm
03:45 25.2 °C 14.3 °C 1014.2 hPa SO 5.8 km/h 7.4 km/h 51% 0.0 mm
03:50 25.2 °C 14.3 °C 1014.1 hPa OSO 4.7 km/h 5.6 km/h 51% 0.0 mm
03:55 25.2 °C 14.3 °C 1014.1 hPa OSO 4.7 km/h 3.7 km/h 51% 0.0 mm
04:00 25.2 °C 14.3 °C 1014.1 hPa OSO 3.2 km/h 6.4 km/h 51% 0.0 mm
04:05 25.2 °C 14.3 °C 1014.0 hPa OSO 3.2 km/h 6.4 km/h 51% 0.0 mm
04:10 25.2 °C 14.3 °C 1014.0 hPa Sur 3.9 km/h 7.4 km/h 51% 0.0 mm
04:15 25.2 °C 14.3 °C 1014.0 hPa Sur 3.2 km/h 9.7 km/h 51% 0.0 mm
04:20 25.1 °C 14.3 °C 1013.8 hPa Sur 4.8 km/h 9.7 km/h 51% 0.0 mm
04:25 24.9 °C 14.1 °C 1013.8 hPa Sur 4.8 km/h 8 km/h 51% 0.0 mm
04:30 24.9 °C 14.1 °C 1013.8 hPa Sur 4.8 km/h 9.7 km/h 51% 0.0 mm
04:35 24.8 °C 14 °C 1013.7 hPa Sur 4.8 km/h 9.7 km/h 51% 0.0 mm
04:40 24.8 °C 14 °C 1013.7 hPa SSO 6.4 km/h 7.6 km/h 51% 0.0 mm
04:45 24.8 °C 13.9 °C 1013.7 hPa Sur 8 km/h 9.7 km/h 51% 0.0 mm
04:50 24.7 °C 14.2 °C 1013.4 hPa Sur 5.8 km/h 7.4 km/h 52% 0.0 mm
04:55 24.7 °C 14.2 °C 1013.4 hPa SSE 4.8 km/h 8 km/h 52% 0.0 mm
05:00 24.7 °C 14.2 °C 1013.4 hPa SSE 3.2 km/h 8 km/h 52% 0.0 mm
05:05 24.6 °C 14.1 °C 1013.4 hPa SSE 3.2 km/h 8 km/h 52% 0.0 mm
05:10 24.2 °C 14 °C 1013.4 hPa SSE 5 km/h 9.3 km/h 53% 0.0 mm
05:15 23.9 °C 14 °C 1013.4 hPa SSE 5 km/h 7.4 km/h 54% 0.0 mm
05:20 23.8 °C 13.9 °C 1013.5 hPa Sur 4.8 km/h 8 km/h 54% 0.0 mm
05:25 23.8 °C 13.9 °C 1013.5 hPa SSO 4.8 km/h 8 km/h 54% 0.0 mm
05:30 23.9 °C 13.7 °C 1013.5 hPa OSO 5 km/h 7.4 km/h 53% 0.0 mm
05:35 24.1 °C 13.6 °C 1013.4 hPa OSO 4.8 km/h 8 km/h 52% 0.0 mm
05:40 24.1 °C 13.6 °C 1013.4 hPa Oeste 3.2 km/h 4.8 km/h 52% 0.0 mm
05:45 24.1 °C 13.6 °C 1013.4 hPa ONO 3.2 km/h 8 km/h 52% 0.0 mm
05:50 24 °C 13.6 °C 1013.2 hPa ONO 2.9 km/h 7.4 km/h 52% 0.0 mm
05:55 23.9 °C 13.4 °C 1013.2 hPa Oeste 3.2 km/h 9.7 km/h 52% 0.0 mm
06:00 23.8 °C 13.3 °C 1013.2 hPa OSO 4.8 km/h 11.3 km/h 52% 0.0 mm
06:05 23.8 °C 13.3 °C 1013.2 hPa OSO 4.8 km/h 8 km/h 52% 0.0 mm
06:10 23.9 °C 13.4 °C 1013.2 hPa SO 3.2 km/h 8 km/h 52% 0.0 mm
06:15 24 °C 13.2 °C 1013.2 hPa SO 3.2 km/h 8 km/h 51% 0.0 mm
06:20 24.1 °C 13.9 °C 1013.2 hPa Sur 3.2 km/h 8 km/h 53% 0.0 mm
06:25 23.8 °C 13.7 °C 1013.2 hPa Este 4.7 km/h 6.9 km/h 53% 0.0 mm
06:30 23.3 °C 13.8 °C 1013.2 hPa ESE 4.7 km/h 9.3 km/h 55% 0.0 mm
06:35 22.9 °C 13.7 °C 1013.1 hPa ESE 3.2 km/h 9.7 km/h 56% 0.0 mm
06:40 22.8 °C 13.6 °C 1013.1 hPa SE 4.8 km/h 11.3 km/h 56% 0.0 mm
06:45 22.6 °C 13.7 °C 1013.1 hPa Sur 5 km/h 7.6 km/h 57% 0.0 mm
06:50 22.6 °C 13.7 °C 1013.3 hPa Sur 8 km/h 8 km/h 57% 0.0 mm
06:55 22.6 °C 13.4 °C 1013.3 hPa Sur 8 km/h 8 km/h 56% 0.0 mm
07:00 22.8 °C 13.6 °C 1013.3 hPa Sur 3.2 km/h 8 km/h 56% 0.0 mm
07:05 22.9 °C 13.4 °C 1013.3 hPa SSE 3.2 km/h 9.7 km/h 55% 0.0 mm
07:10 23.1 °C 13.3 °C 1013.3 hPa Sur 5 km/h 7.4 km/h 54% 0.0 mm
07:15 23.1 °C 13 °C 1013.3 hPa Sur 4.8 km/h 9.7 km/h 53% 0.0 mm
07:20 23.2 °C 12.8 °C 1013.4 hPa Sur 6.4 km/h 7.4 km/h 52% 0.0 mm
07:25 23.2 °C 12.8 °C 1013.4 hPa Sur 8 km/h 9.7 km/h 52% 0.0 mm
07:30 23.3 °C 12.9 °C 1013.4 hPa Sur 4.8 km/h 11.3 km/h 52% 0.0 mm
07:35 23.3 °C 12.9 °C 1013.4 hPa SSO 4.8 km/h 9.7 km/h 52% 0.0 mm
07:40 23.4 °C 12.7 °C 1013.4 hPa SSO 5.8 km/h 7.6 km/h 51% 0.0 mm
07:45 23.6 °C 12.9 °C 1013.4 hPa SSO 4.8 km/h 9.7 km/h 51% 0.0 mm
07:50 23.7 °C 12.7 °C 1013.5 hPa SSO 5.8 km/h 7.4 km/h 50% 0.0 mm
07:55 23.8 °C 12.7 °C 1013.5 hPa SSO 4.8 km/h 8 km/h 50% 0.0 mm
08:00 23.9 °C 12.8 °C 1013.5 hPa SSO 4.8 km/h 8 km/h 50% 0.0 mm
08:05 24 °C 12.6 °C 1013.6 hPa Sur 4.8 km/h 8 km/h 49% 0.0 mm
08:10 24.1 °C 12.8 °C 1013.6 hPa SSO 3.2 km/h 8 km/h 49% 0.0 mm
08:15 24.2 °C 12.8 °C 1013.6 hPa SSO 4.7 km/h 7.4 km/h 49% 0.0 mm
08:20 24.4 °C 12.7 °C 1013.8 hPa SSO 4.8 km/h 9.7 km/h 48% 0.0 mm
08:25 24.5 °C 12.8 °C 1013.8 hPa SSO 4.8 km/h 8 km/h 48% 0.0 mm
08:30 24.7 °C 12.9 °C 1013.8 hPa Sur 4.7 km/h 3.7 km/h 48% 0.0 mm
08:35 24.9 °C 13.1 °C 1013.9 hPa Sur 3.2 km/h 4.8 km/h 48% 0.0 mm
08:40 25.3 °C 13.2 °C 1013.9 hPa SSE 3.2 km/h 4.8 km/h 47% 0.0 mm
08:45 25.6 °C 13.4 °C 1013.9 hPa OSO 2.9 km/h 3.7 km/h 47% 0.0 mm
08:50 26 °C 13.8 °C 1014.0 hPa North 2.9 km/h 5.6 km/h 47% 0.0 mm
08:55 26.2 °C 13.9 °C 1014.0 hPa North 3.2 km/h 8 km/h 47% 0.0 mm
09:00 26.1 °C 13.9 °C 1014.0 hPa NNE 3.2 km/h 8 km/h 47% 0.0 mm
09:05 26.2 °C 14 °C 1014.0 hPa NNE 4.7 km/h 5.8 km/h 47% 0.0 mm
09:10 26.2 °C 13.7 °C 1014.0 hPa NNO 4.7 km/h 7.4 km/h 46% 0.0 mm
09:15 26.3 °C 13.8 °C 1014.0 hPa NNE 3.2 km/h 9.7 km/h 46% 0.0 mm
09:20 26.3 °C 13.7 °C 1014.0 hPa NE 4.8 km/h 11.3 km/h 46% 0.0 mm
09:25 26.1 °C 14.2 °C 1014.0 hPa NE 4.8 km/h 12.9 km/h 48% 0.0 mm
09:30 26.1 °C 13.9 °C 1014.0 hPa NE 8 km/h 11.3 km/h 47% 0.0 mm
09:35 26.3 °C 14.4 °C 1014.0 hPa ENE 8.4 km/h 7.4 km/h 48% 0.0 mm
09:40 26.5 °C 13.9 °C 1014.0 hPa NE 7.6 km/h 11.1 km/h 46% 0.0 mm
09:45 26.7 °C 13.8 °C 1014.0 hPa NE 8 km/h 11.3 km/h 45% 0.0 mm
09:50 26.9 °C 13.9 °C 1014.2 hPa NNE 6.9 km/h 11.1 km/h 45% 0.0 mm
09:55 27.1 °C 14.1 °C 1014.2 hPa NE 8 km/h 11.3 km/h 45% 0.0 mm
10:00 27.3 °C 14.3 °C 1014.2 hPa NNE 8 km/h 11.3 km/h 45% 0.0 mm
10:05 27.4 °C 14.4 °C 1014.1 hPa NNE 8 km/h 11.3 km/h 45% 0.0 mm
10:10 27.6 °C 14.6 °C 1014.1 hPa NNE 5.8 km/h 13 km/h 45% 0.0 mm
10:15 27.6 °C 14.9 °C 1014.1 hPa NNE 4.8 km/h 11.3 km/h 46% 0.0 mm
10:20 27.6 °C 14.6 °C 1014.0 hPa NE 6.9 km/h 13 km/h 45% 0.0 mm
10:25 27.8 °C 14.8 °C 1014.0 hPa NNE 8 km/h 14.5 km/h 45% 0.0 mm
10:30 27.9 °C 14.9 °C 1014.0 hPa NNE 8 km/h 12.9 km/h 45% 0.0 mm
10:35 28.1 °C 15.1 °C 1013.9 hPa NNE 8 km/h 11.3 km/h 45% 0.0 mm
10:40 28.4 °C 14.9 °C 1013.9 hPa NE 7.6 km/h 11.1 km/h 44% 0.0 mm
10:45 28.7 °C 15.2 °C 1013.9 hPa North 7.6 km/h 13.7 km/h 44% 0.0 mm
10:50 28.8 °C 15.3 °C 1013.7 hPa NNE 7.6 km/h 13 km/h 44% 0.0 mm
10:55 28.9 °C 15.4 °C 1013.7 hPa North 7.6 km/h 13 km/h 44% 0.0 mm
11:00 29 °C 15.6 °C 1013.7 hPa NNE 9.7 km/h 17.7 km/h 44% 0.0 mm
11:05 29.4 °C 15.5 °C 1013.7 hPa NE 9.5 km/h 7.6 km/h 43% 0.0 mm
11:10 29.6 °C 15.3 °C 1013.7 hPa ENE 7.6 km/h 14.8 km/h 42% 0.0 mm
11:15 29.7 °C 15.1 °C 1013.7 hPa Este 7.6 km/h 14.8 km/h 41% 0.0 mm
11:20 29.9 °C 15.2 °C 1013.8 hPa NE 8.7 km/h 9.3 km/h 41% 0.0 mm
11:25 30.1 °C 14.6 °C 1013.8 hPa ENE 9.7 km/h 14.5 km/h 39% 0.0 mm
11:30 30.2 °C 14.7 °C 1013.8 hPa SSE 6.9 km/h 11.1 km/h 39% 0.0 mm
11:35 30.3 °C 14.8 °C 1013.9 hPa SSE 6.9 km/h 3.9 km/h 39% 0.0 mm
11:40 30.6 °C 15.1 °C 1013.9 hPa NE 5.8 km/h 7.4 km/h 39% 0.0 mm
11:45 30.8 °C 15.7 °C 1013.9 hPa ESE 5.8 km/h 7.4 km/h 40% 0.0 mm
11:50 31 °C 15.4 °C 1013.6 hPa Este 4.8 km/h 14.5 km/h 39% 0.0 mm
11:55 31.2 °C 15.6 °C 1013.6 hPa SE 4.8 km/h 14.5 km/h 39% 0.0 mm
12:00 31.4 °C 16.2 °C 1013.6 hPa Este 8 km/h 11.3 km/h 40% 0.0 mm
12:05 31.4 °C 16.2 °C 1013.6 hPa NE 8 km/h 11.3 km/h 40% 0.0 mm
12:10 31.4 °C 16.6 °C 1013.6 hPa NE 8 km/h 16.1 km/h 41% 0.0 mm
12:15 31.2 °C 16.4 °C 1013.6 hPa North 6.4 km/h 11.1 km/h 41% 0.0 mm
12:20 31.2 °C 16 °C 1013.5 hPa NNE 11.1 km/h 18.5 km/h 40% 0.0 mm
12:25 31.2 °C 16.4 °C 1013.5 hPa NNE 11.3 km/h 20.9 km/h 41% 0.0 mm
12:30 31.2 °C 16.8 °C 1013.5 hPa ENE 11.1 km/h 20.4 km/h 42% 0.0 mm
12:35 31.2 °C 16.4 °C 1013.3 hPa NE 11.3 km/h 19.3 km/h 41% 0.0 mm
12:40 31.3 °C 16.8 °C 1013.3 hPa NE 11.3 km/h 19.3 km/h 42% 0.0 mm
12:45 31.4 °C 16.9 °C 1013.3 hPa NE 11.3 km/h 17.7 km/h 42% 0.0 mm
12:50 31.6 °C 17.1 °C 1013.2 hPa NNE 11.3 km/h 17.7 km/h 42% 0.0 mm
12:55 31.5 °C 17.8 °C 1013.2 hPa NNE 11.3 km/h 19.3 km/h 44% 0.0 mm
13:00 31.6 °C 18.2 °C 1013.2 hPa NE 11.3 km/h 22.5 km/h 45% 0.0 mm
13:05 31.8 °C 18.8 °C 1013.2 hPa NE 11.3 km/h 24.1 km/h 46% 0.0 mm
13:10 31.3 °C 18.7 °C 1013.2 hPa North 12.2 km/h 25.9 km/h 47% 0.0 mm
13:15 31.3 °C 19 °C 1013.2 hPa NNE 12.2 km/h 20.4 km/h 48% 0.0 mm
13:20 31.4 °C 18.7 °C 1013.1 hPa NE 14.5 km/h 25.7 km/h 47% 0.0 mm
13:25 31.3 °C 18.7 °C 1013.1 hPa NE 14.5 km/h 29 km/h 47% 0.0 mm
13:30 31.2 °C 18.9 °C 1013.1 hPa NE 16.1 km/h 30.6 km/h 48% 0.0 mm
13:35 31.1 °C 19.1 °C 1013.1 hPa NE 16.1 km/h 30.6 km/h 49% 0.0 mm
13:40 30.9 °C 18.9 °C 1013.1 hPa NNE 19 km/h 27.8 km/h 49% 0.0 mm
13:45 30.8 °C 19.2 °C 1013.1 hPa NE 19.3 km/h 30.6 km/h 50% 0.0 mm
13:50 30.9 °C 19.3 °C 1012.9 hPa NE 19.3 km/h 30.6 km/h 50% 0.0 mm
13:55 30.9 °C 18.9 °C 1012.9 hPa NE 19.3 km/h 27.4 km/h 49% 0.0 mm
14:00 30.9 °C 19.3 °C 1012.9 hPa NE 16.1 km/h 25.7 km/h 50% 0.0 mm
14:05 30.9 °C 19.3 °C 1012.8 hPa ENE 16.4 km/h 22.2 km/h 50% 0.0 mm
14:10 31.3 °C 19.3 °C 1012.8 hPa ESE 14.8 km/h 9.5 km/h 49% 0.0 mm
14:15 31.6 °C 19.3 °C 1012.8 hPa NNE 14.8 km/h 22.2 km/h 48% 0.0 mm
14:20 31.5 °C 19.5 °C 1012.7 hPa NE 13.7 km/h 29.6 km/h 49% 0.0 mm
14:25 31.2 °C 19.2 °C 1012.7 hPa ENE 13.7 km/h 27.8 km/h 49% 0.0 mm
14:30 31.2 °C 18.9 °C 1012.7 hPa ENE 19 km/h 35.2 km/h 48% 0.0 mm
14:35 31.4 °C 19.4 °C 1012.5 hPa NE 19.3 km/h 35.4 km/h 49% 0.0 mm
14:40 31.7 °C 18.3 °C 1012.5 hPa NE 14.8 km/h 22.2 km/h 45% 0.0 mm
14:45 31.8 °C 18.7 °C 1012.5 hPa NE 14.5 km/h 24.1 km/h 46% 0.0 mm
14:50 31.9 °C 18.5 °C 1012.3 hPa NE 14.5 km/h 24.1 km/h 45% 0.0 mm
14:55 32 °C 18.6 °C 1012.3 hPa NE 15.6 km/h 22.2 km/h 45% 0.0 mm
15:00 31.9 °C 18.5 °C 1012.3 hPa NE 14.5 km/h 22.5 km/h 45% 0.0 mm
15:05 32.2 °C 18.1 °C 1012.1 hPa Este 14 km/h 24.1 km/h 43% 0.0 mm
15:10 32.2 °C 18.1 °C 1012.1 hPa NE 12.9 km/h 24.1 km/h 43% 0.0 mm
15:15 32.6 °C 17.9 °C 1012.1 hPa NE 12.9 km/h 20.9 km/h 42% 0.0 mm
15:20 32.6 °C 17.6 °C 1012.0 hPa NNE 13 km/h 18.5 km/h 41% 0.0 mm
15:25 32.8 °C 17.4 °C 1012.0 hPa NE 12.9 km/h 20.9 km/h 40% 0.0 mm
15:30 32.8 °C 17.8 °C 1012.0 hPa ENE 13 km/h 24.1 km/h 41% 0.0 mm
15:35 32.7 °C 17.3 °C 1011.9 hPa NE 12.9 km/h 25.7 km/h 40% 0.0 mm
15:40 32.7 °C 16.9 °C 1011.9 hPa NE 16.1 km/h 24.1 km/h 39% 0.0 mm
15:45 32.9 °C 17.9 °C 1011.9 hPa NE 16.1 km/h 20.9 km/h 41% 0.0 mm
15:50 33.1 °C 18.1 °C 1011.7 hPa NNE 12.2 km/h 25.9 km/h 41% 0.0 mm
15:55 33 °C 17.2 °C 1011.7 hPa NE 12.9 km/h 25.7 km/h 39% 0.0 mm
16:00 33 °C 17.6 °C 1011.7 hPa NE 14.5 km/h 25.7 km/h 40% 0.0 mm
16:05 33.2 °C 17.3 °C 1011.6 hPa NE 14.5 km/h 22.5 km/h 39% 0.0 mm
16:10 33.2 °C 17.4 °C 1011.6 hPa Este 12.2 km/h 25.9 km/h 39% 0.0 mm
16:15 33.2 °C 18.2 °C 1011.6 hPa NE 12.9 km/h 25.7 km/h 41% 0.0 mm
16:20 33.3 °C 17.9 °C 1011.6 hPa NNE 14 km/h 20.4 km/h 40% 0.0 mm
16:25 33.2 °C 18.2 °C 1011.6 hPa NE 14.5 km/h 24.1 km/h 41% 0.0 mm
16:30 33.2 °C 18.9 °C 1011.6 hPa ENE 13.7 km/h 20.4 km/h 43% 0.0 mm
16:35 33.2 °C 19.3 °C 1011.4 hPa NE 12.9 km/h 24.1 km/h 44% 0.0 mm
16:40 33.2 °C 18.9 °C 1011.4 hPa NNE 13 km/h 16.7 km/h 43% 0.0 mm
16:45 33.3 °C 19.4 °C 1011.4 hPa ENE 12.9 km/h 20.9 km/h 44% 0.0 mm
16:50 33.6 °C 19.7 °C 1011.3 hPa Este 12.2 km/h 17.2 km/h 44% 0.0 mm
16:55 33.4 °C 19.5 °C 1011.3 hPa Este 12.9 km/h 24.1 km/h 44% 0.0 mm
17:00 33.2 °C 19.3 °C 1011.3 hPa Este 12.9 km/h 25.7 km/h 44% 0.0 mm
17:05 33.3 °C 19.4 °C 1011.3 hPa ESE 12.9 km/h 24.1 km/h 44% 0.0 mm
17:10 33.3 °C 19.4 °C 1011.3 hPa ESE 11.3 km/h 22.5 km/h 44% 0.0 mm
17:15 33.1 °C 19.2 °C 1011.3 hPa ESE 11.3 km/h 24.1 km/h 44% 0.0 mm
17:20 33 °C 19.1 °C 1011.1 hPa ENE 14.8 km/h 19 km/h 44% 0.0 mm
17:25 32.9 °C 18.7 °C 1011.1 hPa SE 14.8 km/h 25.9 km/h 43% 0.0 mm
17:30 32.8 °C 18.9 °C 1011.1 hPa Este 13.7 km/h 18 km/h 44% 0.0 mm
17:35 33.1 °C 19.2 °C 1011.1 hPa ESE 12.9 km/h 20.9 km/h 44% 0.0 mm
17:40 33 °C 18.7 °C 1011.1 hPa ESE 12.9 km/h 27.4 km/h 43% 0.0 mm
17:45 32.8 °C 18.9 °C 1011.1 hPa ESE 12.9 km/h 20.9 km/h 44% 0.0 mm
17:50 32.7 °C 18.8 °C 1011.2 hPa ESE 11.3 km/h 20.9 km/h 44% 0.0 mm
17:55 32.7 °C 18.8 °C 1011.2 hPa ESE 11.3 km/h 24.1 km/h 44% 0.0 mm
18:00 32.6 °C 18.8 °C 1011.2 hPa SE 12.9 km/h 22.5 km/h 44% 0.0 mm
18:05 32.6 °C 18.8 °C 1011.1 hPa SE 12.2 km/h 17.2 km/h 44% 0.0 mm
18:10 32.5 °C 18.7 °C 1011.1 hPa Este 11.9 km/h 18.5 km/h 44% 0.0 mm
18:15 32.3 °C 18.8 °C 1011.1 hPa ESE 11.3 km/h 24.1 km/h 45% 0.0 mm
18:20 32.2 °C 18.8 °C 1011.1 hPa ESE 14.8 km/h 18.5 km/h 45% 0.0 mm
18:25 32.2 °C 19.1 °C 1011.1 hPa ENE 14.8 km/h 13 km/h 46% 0.0 mm
18:30 32.1 °C 18.7 °C 1011.1 hPa ESE 12.2 km/h 18.5 km/h 45% 0.0 mm
18:35 31.9 °C 19.2 °C 1011.0 hPa ENE 12.2 km/h 7.4 km/h 47% 0.0 mm
18:40 32.1 °C 19 °C 1011.0 hPa NE 11.9 km/h 20.4 km/h 46% 0.0 mm
18:45 31.8 °C 19.1 °C 1011.0 hPa ENE 11.3 km/h 25.7 km/h 47% 0.0 mm
18:50 31.6 °C 19.3 °C 1010.9 hPa NNE 14 km/h 22.2 km/h 48% 0.0 mm
18:55 31.6 °C 19.3 °C 1010.9 hPa ENE 14.5 km/h 27.4 km/h 48% 0.0 mm
19:00 31.3 °C 19 °C 1010.9 hPa NE 14.5 km/h 27.4 km/h 48% 0.0 mm
19:05 31.2 °C 19.2 °C 1011.1 hPa NE 14.5 km/h 25.7 km/h 49% 0.0 mm
19:10 31 °C 19.1 °C 1011.1 hPa ESE 16.4 km/h 22.2 km/h 49% 0.0 mm
19:15 31.1 °C 19.1 °C 1011.1 hPa NE 16.1 km/h 25.7 km/h 49% 0.0 mm
19:20 30.9 °C 18.9 °C 1011.4 hPa NE 14.8 km/h 20.4 km/h 49% 0.0 mm
19:25 30.8 °C 19.2 °C 1011.4 hPa NE 14.5 km/h 25.7 km/h 50% 0.0 mm
19:30 30.4 °C 20.1 °C 1011.4 hPa NE 16.1 km/h 30.6 km/h 54% 0.0 mm
19:35 29.9 °C 19.9 °C 1011.4 hPa NE 16.1 km/h 25.7 km/h 55% 0.0 mm
19:40 29.7 °C 20.3 °C 1011.4 hPa ENE 17.2 km/h 24.5 km/h 57% 0.0 mm
19:45 29.4 °C 20.3 °C 1011.4 hPa NE 16.1 km/h 27.4 km/h 58% 0.0 mm
19:50 29.2 °C 20.1 °C 1011.6 hPa NE 17.2 km/h 29.6 km/h 58% 0.0 mm
19:55 28.9 °C 20.1 °C 1011.6 hPa NE 16.1 km/h 29 km/h 59% 0.0 mm
20:00 28.8 °C 20 °C 1011.6 hPa NE 19.3 km/h 30.6 km/h 59% 0.0 mm
20:05 28.7 °C 20.1 °C 1011.6 hPa NE 19.3 km/h 35.4 km/h 60% 0.0 mm
20:10 28.4 °C 20.2 °C 1011.6 hPa NNE 19 km/h 33.3 km/h 61% 0.0 mm
20:15 28.2 °C 20.2 °C 1011.6 hPa NE 19 km/h 29.6 km/h 62% 0.0 mm
20:20 27.8 °C 20.4 °C 1011.8 hPa NNE 19.8 km/h 29.6 km/h 64% 0.0 mm
20:25 27.6 °C 20.4 °C 1011.8 hPa NNE 19.8 km/h 22.2 km/h 65% 0.0 mm
20:30 27.6 °C 20.4 °C 1011.8 hPa NE 16.1 km/h 24.1 km/h 65% 0.0 mm
20:35 27.4 °C 20.5 °C 1011.7 hPa NE 16.1 km/h 27.4 km/h 66% 0.0 mm
20:40 27.3 °C 20.4 °C 1011.7 hPa NNE 17.2 km/h 24.1 km/h 66% 0.0 mm
20:45 27.2 °C 20.6 °C 1011.7 hPa NE 16.1 km/h 29 km/h 67% 0.0 mm
20:50 27 °C 20.6 °C 1011.9 hPa NE 19.3 km/h 27.4 km/h 68% 0.0 mm
20:55 26.9 °C 20.7 °C 1011.9 hPa NNE 18 km/h 27 km/h 69% 0.0 mm
21:00 26.8 °C 20.6 °C 1011.9 hPa NE 19.3 km/h 32.2 km/h 69% 0.0 mm
21:05 26.8 °C 20.6 °C 1011.9 hPa NE 19.3 km/h 32.2 km/h 69% 0.0 mm
21:10 26.8 °C 20.8 °C 1011.9 hPa NE 19.3 km/h 24.1 km/h 70% 0.0 mm
21:15 26.7 °C 20.8 °C 1011.9 hPa NE 18 km/h 25.9 km/h 70% 0.0 mm
21:20 26.6 °C 20.7 °C 1011.8 hPa NE 16.1 km/h 25.7 km/h 70% 0.0 mm
21:25 26.5 °C 20.8 °C 1011.8 hPa NE 16.1 km/h 33.8 km/h 71% 0.0 mm
21:30 26.4 °C 20.7 °C 1011.8 hPa NNE 18 km/h 16.7 km/h 71% 0.0 mm
21:35 26.4 °C 20.9 °C 1011.7 hPa NE 19.3 km/h 27.4 km/h 72% 0.0 mm
21:40 26.3 °C 20.8 °C 1011.7 hPa NE 14.5 km/h 22.5 km/h 72% 0.0 mm
21:45 26.3 °C 20.8 °C 1011.7 hPa NE 14.8 km/h 16.7 km/h 72% 0.0 mm
21:50 26.2 °C 21 °C 1011.9 hPa NE 14 km/h 20.4 km/h 73% 0.0 mm
21:55 26.2 °C 21 °C 1011.9 hPa NE 14.5 km/h 27.4 km/h 73% 0.0 mm
22:00 26.2 °C 20.8 °C 1011.9 hPa NE 14.5 km/h 25.7 km/h 72% 0.0 mm
22:05 26.1 °C 20.9 °C 1012.2 hPa NE 14.5 km/h 20.9 km/h 73% 0.0 mm
22:10 26.1 °C 20.7 °C 1012.2 hPa ENE 12.2 km/h 22.2 km/h 72% 0.0 mm
22:15 26 °C 20.6 °C 1012.2 hPa NE 12.9 km/h 24.1 km/h 72% 0.0 mm
22:20 26 °C 20.6 °C 1012.5 hPa NE 12.9 km/h 20.9 km/h 72% 0.0 mm
22:25 26 °C 20.6 °C 1012.5 hPa NE 12.9 km/h 22.5 km/h 72% 0.0 mm
22:30 25.9 °C 20.4 °C 1012.5 hPa NE 14.8 km/h 18.5 km/h 72% 0.0 mm
22:35 25.9 °C 20.7 °C 1012.7 hPa NE 14.5 km/h 22.5 km/h 73% 0.0 mm
22:40 25.8 °C 20.6 °C 1012.7 hPa NE 14.5 km/h 22.5 km/h 73% 0.0 mm
22:45 25.7 °C 20.7 °C 1012.7 hPa NE 14.5 km/h 20.9 km/h 74% 0.0 mm
22:52 25.7 °C 20.7 °C 1013.2 hPa NE 12.2 km/h 20.9 km/h 74% 0.0 mm
22:58 25.6 °C 20.8 °C 1013.2 hPa NE 12.2 km/h 27.8 km/h 75% 0.0 mm
23:04 25.5 °C 20.7 °C 1013.2 hPa NE 14.8 km/h 18.5 km/h 75% 0.0 mm
23:10 25.4 °C 20.7 °C 1013.2 hPa NNE 13.7 km/h 18.5 km/h 75% 0.0 mm
23:15 25.4 °C 20.6 °C 1013.2 hPa NE 12.9 km/h 20.9 km/h 75% 0.0 mm
23:20 25.3 °C 20.8 °C 1013.6 hPa NE 13.7 km/h 18.3 km/h 76% 0.0 mm
23:25 25.3 °C 20.8 °C 1013.6 hPa NE 13.7 km/h 20.4 km/h 76% 0.0 mm
23:30 25.2 °C 20.9 °C 1013.6 hPa Este 13.7 km/h 18.5 km/h 77% 0.0 mm
23:35 25.2 °C 20.9 °C 1013.8 hPa NE 12.9 km/h 22.5 km/h 77% 0.0 mm
23:40 25.1 °C 20.8 °C 1013.8 hPa ENE 14 km/h 20.4 km/h 77% 0.0 mm
23:45 25.1 °C 20.8 °C 1013.8 hPa NE 14.5 km/h 19.3 km/h 77% 0.0 mm
23:50 25 °C 20.9 °C 1013.9 hPa NE 12.9 km/h 19.3 km/h 78% 0.0 mm
23:55 24.9 °C 20.8 °C 1013.9 hPa NE 12.9 km/h 20.9 km/h 78% 0.0 mm
Murcia-Puente Tocinos, España
Compliments of Weather Underground - 2.75 mb

La estación de MeteoMurcia.com, publica sus datos en los siguientes proyectos:

Weather Underground PWS IMURCIAP2 Meteoclimatic www.awekas.at

W3Counter
Web Analytics